createdAt,value
2019-02-19T00:02:13.849Z,21.67
2019-02-19T00:04:42.680Z,21.80
2019-02-19T00:07:11.172Z,21.43
2019-02-19T00:09:40.081Z,21.60
2019-02-19T00:12:08.608Z,21.20
2019-02-19T00:14:37.164Z,21.87
2019-02-19T00:17:05.628Z,21.97
2019-02-19T00:19:34.192Z,21.43
2019-02-19T00:22:02.734Z,21.50
2019-02-19T00:24:31.302Z,21.40
2019-02-19T00:26:59.839Z,21.10
2019-02-19T00:29:28.405Z,20.83
2019-02-19T00:31:56.940Z,22.37
2019-02-19T00:34:25.433Z,22.40
2019-02-19T00:36:53.972Z,23.47
2019-02-19T00:39:22.612Z,22.23
2019-02-19T00:41:51.148Z,22.10
2019-02-19T00:44:19.710Z,20.90
2019-02-19T00:46:48.248Z,23.87
2019-02-19T00:49:16.808Z,24.10
2019-02-19T00:51:45.350Z,23.50
2019-02-19T00:54:13.914Z,21.70
2019-02-19T00:56:42.793Z,22.17
2019-02-19T00:59:11.293Z,22.40
2019-02-19T01:01:39.825Z,22.80
2019-02-19T01:04:08.448Z,22.73
2019-02-19T01:06:36.912Z,22.67
2019-02-19T01:09:08.012Z,23.37
2019-02-19T01:11:36.549Z,22.20
2019-02-19T01:14:05.184Z,23.40
2019-02-19T01:16:33.725Z,23.20
2019-02-19T01:19:02.286Z,22.60
2019-02-19T01:21:31.217Z,22.93
2019-02-19T01:23:59.785Z,22.20
2019-02-19T01:26:28.326Z,22.20
2019-02-19T01:28:58.304Z,23.40
2019-02-19T01:31:27.041Z,22.63
2019-02-19T01:33:55.569Z,23.57
2019-02-19T01:36:24.440Z,23.37
2019-02-19T01:38:52.977Z,22.97
2019-02-19T01:41:21.467Z,22.87
2019-02-19T01:43:50.288Z,21.60
2019-02-19T01:46:18.857Z,22.87
2019-02-19T01:48:47.392Z,24.50
2019-02-19T01:51:15.880Z,26.20
2019-02-19T01:53:44.630Z,24.00
2019-02-19T01:56:13.267Z,24.80
2019-02-19T01:58:42.108Z,26.53
2019-02-19T02:01:10.670Z,24.07
2019-02-19T02:03:39.226Z,25.27
2019-02-19T02:06:07.837Z,24.60
2019-02-19T02:08:36.380Z,23.60
2019-02-19T02:11:04.944Z,23.60
2019-02-19T02:13:33.708Z,23.67
2019-02-19T02:16:02.248Z,25.47
2019-02-19T02:18:30.812Z,23.63
2019-02-19T02:20:59.300Z,23.60
2019-02-19T02:23:27.845Z,23.50
2019-02-19T02:25:56.378Z,23.80
2019-02-19T02:28:25.017Z,23.23
2019-02-19T02:30:53.556Z,23.40
2019-02-19T02:33:22.054Z,22.57
2019-02-19T02:35:50.603Z,21.47
2019-02-19T02:38:19.439Z,23.17
2019-02-19T02:40:47.976Z,23.03
2019-02-19T02:43:16.810Z,21.80
2019-02-19T02:45:52.791Z,21.10
2019-02-19T02:48:15.497Z,22.50
2019-02-19T02:50:44.044Z,22.80
2019-02-19T02:53:12.602Z,23.63
2019-02-19T02:55:41.069Z,22.57
2019-02-19T02:58:09.980Z,22.67
2019-02-19T03:00:38.851Z,21.97
2019-02-19T03:03:07.388Z,23.97
2019-02-19T03:05:37.588Z,21.23
2019-02-19T03:08:06.854Z,22.13
2019-02-19T03:10:35.412Z,22.00
2019-02-19T03:13:03.873Z,22.20
2019-02-19T03:15:32.440Z,22.30
2019-02-19T03:18:00.994Z,21.83
2019-02-19T03:20:29.546Z,22.27
2019-02-19T03:22:58.081Z,22.67
2019-02-19T03:25:26.620Z,21.00
2019-02-19T03:27:55.185Z,21.30
2019-02-19T03:30:23.733Z,22.23
2019-02-19T03:32:52.290Z,20.77
2019-02-19T03:35:20.823Z,21.17
2019-02-19T03:37:49.385Z,21.73
2019-02-19T03:40:17.965Z,21.77
2019-02-19T03:42:46.812Z,22.77
2019-02-19T03:45:15.272Z,26.37
2019-02-19T03:47:43.767Z,21.53
2019-02-19T03:50:12.292Z,21.97
2019-02-19T03:52:40.780Z,22.63
2019-02-19T03:55:09.678Z,21.37
2019-02-19T03:57:38.624Z,21.77
2019-02-19T04:00:08.593Z,21.47
2019-02-19T04:02:37.074Z,20.57
2019-02-19T04:05:06.307Z,21.73
2019-02-19T04:07:34.835Z,22.50
2019-02-19T04:10:04.607Z,22.40
2019-02-19T04:12:33.091Z,22.70
2019-02-19T04:15:01.553Z,21.97
2019-02-19T04:17:36.683Z,22.03
2019-02-19T04:20:07.184Z,21.90
2019-02-19T04:22:35.717Z,22.30
2019-02-19T04:25:04.811Z,21.70
2019-02-19T04:27:33.278Z,22.60
2019-02-19T04:30:02.184Z,20.63
2019-02-19T04:32:30.719Z,22.03
2019-02-19T04:34:59.204Z,20.37
2019-02-19T04:37:29.775Z,20.60
2019-02-19T04:39:58.015Z,19.50
2019-02-19T04:42:26.472Z,21.10
2019-02-19T04:44:54.951Z,21.30
2019-02-19T04:47:23.712Z,20.60
2019-02-19T04:49:52.596Z,20.97
2019-02-19T04:52:21.159Z,20.67
2019-02-19T04:54:49.711Z,21.40
2019-02-19T04:57:18.168Z,20.60
2019-02-19T04:59:46.719Z,20.50
2019-02-19T05:02:15.183Z,19.73
2019-02-19T05:04:43.735Z,19.60
2019-02-19T05:07:12.199Z,19.57
2019-02-19T05:09:40.679Z,19.17
2019-02-19T05:12:09.135Z,19.57
2019-02-19T05:14:39.715Z,19.47
2019-02-19T05:17:08.188Z,19.37
2019-02-19T05:19:36.744Z,18.30
2019-02-19T05:22:05.341Z,17.80
2019-02-19T05:24:33.875Z,18.00
2019-02-19T05:27:02.359Z,15.67
2019-02-19T05:29:30.815Z,15.47
2019-02-19T05:31:59.379Z,14.00
2019-02-19T05:34:27.844Z,13.13
2019-02-19T05:36:56.401Z,13.33
2019-02-19T05:39:25.003Z,14.63
2019-02-19T05:41:53.563Z,15.40
2019-02-19T05:44:22.017Z,16.87
2019-02-19T05:46:50.507Z,15.27
2019-02-19T05:49:19.043Z,15.13
2019-02-19T05:51:47.694Z,15.07
2019-02-19T05:54:16.227Z,12.97
2019-02-19T05:56:44.716Z,14.80
2019-02-19T05:59:13.565Z,15.37
2019-02-19T06:01:42.091Z,16.10
2019-02-19T06:04:10.583Z,17.13
2019-02-19T06:06:39.114Z,17.50
2019-02-19T06:09:07.667Z,16.90
2019-02-19T06:11:36.203Z,17.27
2019-02-19T06:14:04.733Z,17.40
2019-02-19T06:16:33.291Z,19.20
2019-02-19T06:19:02.048Z,26.80
2019-02-19T06:21:30.602Z,15.93
2019-02-19T06:23:59.064Z,13.40
2019-02-19T06:26:27.615Z,14.83
2019-02-19T06:28:57.840Z,11.00
2019-02-19T06:31:26.503Z,13.00
2019-02-19T06:33:55.291Z,11.17
2019-02-19T06:36:24.156Z,12.00
2019-02-19T06:38:52.642Z,10.80
2019-02-19T06:41:21.103Z,11.33
2019-02-19T06:43:49.588Z,10.70
2019-02-19T06:46:18.053Z,10.90
2019-02-19T06:48:46.587Z,10.20
2019-02-19T06:51:15.359Z,11.03
2019-02-19T06:53:44.152Z,11.27
2019-02-19T06:56:12.707Z,10.80
2019-02-19T06:58:41.171Z,10.73
2019-02-19T07:01:09.791Z,9.97
2019-02-19T07:03:45.807Z,10.60
2019-02-19T07:06:14.288Z,10.90
2019-02-19T07:08:42.734Z,10.77
2019-02-19T07:11:11.223Z,10.83
2019-02-19T07:13:39.694Z,10.30
2019-02-19T07:16:08.316Z,10.87
2019-02-19T07:18:36.846Z,9.40
2019-02-19T07:21:05.479Z,9.30
2019-02-19T07:23:34.008Z,9.60
2019-02-19T07:26:02.567Z,9.07
2019-02-19T07:28:31.096Z,9.40
2019-02-19T07:30:59.959Z,8.33
2019-02-19T07:33:28.419Z,8.97
2019-02-19T07:35:56.870Z,9.63
2019-02-19T07:38:25.347Z,9.37
2019-02-19T07:40:53.884Z,9.33
2019-02-19T07:43:22.435Z,8.60
2019-02-19T07:45:52.308Z,8.80
2019-02-19T07:48:20.916Z,8.70
2019-02-19T07:50:49.451Z,8.23
2019-02-19T07:53:17.994Z,9.10
2019-02-19T07:55:46.456Z,9.83
2019-02-19T07:58:15.083Z,11.73
2019-02-19T08:00:43.641Z,9.43
2019-02-19T08:03:12.164Z,8.60
2019-02-19T08:05:40.647Z,9.93
2019-02-19T08:08:09.176Z,8.73
2019-02-19T08:10:37.730Z,8.97
2019-02-19T08:13:06.254Z,9.03
2019-02-19T08:15:35.084Z,10.03
2019-02-19T08:18:03.547Z,9.80
2019-02-19T08:20:32.095Z,9.03
2019-02-19T08:23:00.840Z,8.43
2019-02-19T08:25:29.725Z,8.30
2019-02-19T08:27:58.181Z,9.03
2019-02-19T08:30:26.663Z,8.60
2019-02-19T08:32:55.115Z,9.43
2019-02-19T08:35:23.663Z,8.83
2019-02-19T08:37:52.211Z,9.07
2019-02-19T08:40:20.764Z,8.73
2019-02-19T08:42:49.621Z,8.60
2019-02-19T08:45:18.164Z,9.50
2019-02-19T08:47:46.687Z,8.60
2019-02-19T08:50:15.164Z,8.83
2019-02-19T08:52:43.625Z,9.40
2019-02-19T08:55:12.215Z,9.10
2019-02-19T08:57:40.702Z,9.00
2019-02-19T09:00:11.461Z,8.80
2019-02-19T09:02:40.331Z,9.60
2019-02-19T09:05:08.855Z,10.17
2019-02-19T09:07:37.348Z,11.60
2019-02-19T09:10:08.948Z,10.33
2019-02-19T09:12:37.840Z,11.03
2019-02-19T09:15:11.016Z,11.73
2019-02-19T09:17:39.408Z,11.90
2019-02-19T09:20:09.125Z,10.80
2019-02-19T09:22:37.923Z,11.00
2019-02-19T09:25:08.323Z,10.83
2019-02-19T09:27:36.871Z,11.53
2019-02-19T09:30:11.063Z,12.40
2019-02-19T09:32:39.799Z,12.20
2019-02-19T09:35:09.432Z,11.40
2019-02-19T09:37:37.951Z,12.20
2019-02-19T09:40:09.190Z,12.40
2019-02-19T09:42:37.787Z,12.50
2019-02-19T09:45:10.415Z,14.00
2019-02-19T09:47:38.943Z,12.30
2019-02-19T09:50:09.814Z,12.77
2019-02-19T09:52:38.336Z,12.00
2019-02-19T09:55:07.964Z,11.60
2019-02-19T09:57:36.563Z,11.83
2019-02-19T10:00:11.345Z,11.30
2019-02-19T10:02:39.905Z,10.77
2019-02-19T10:05:10.475Z,11.33
2019-02-19T10:07:39.024Z,11.63
2019-02-19T10:10:10.634Z,12.40
2019-02-19T10:12:39.255Z,11.40
2019-02-19T10:15:11.020Z,11.10
2019-02-19T10:17:39.507Z,10.13
2019-02-19T10:20:10.000Z,10.53
2019-02-19T10:22:38.587Z,9.13
2019-02-19T10:25:12.162Z,10.00
2019-02-19T10:27:40.714Z,10.77
2019-02-19T10:30:17.811Z,11.07
2019-02-19T10:32:46.295Z,11.00
2019-02-19T10:35:14.751Z,12.60
2019-02-19T10:37:43.233Z,13.37
2019-02-19T10:40:14.471Z,13.80
2019-02-19T10:42:43.168Z,12.20
2019-02-19T10:45:14.855Z,13.00
2019-02-19T10:47:43.408Z,11.83
2019-02-19T10:50:12.003Z,11.97
2019-02-19T10:52:40.460Z,12.20
2019-02-19T10:55:10.280Z,12.40
2019-02-19T10:57:38.815Z,13.50
2019-02-19T11:00:19.220Z,13.20
2019-02-19T11:02:47.901Z,12.10
2019-02-19T11:05:16.616Z,11.80
2019-02-19T11:07:45.512Z,11.57
2019-02-19T11:10:14.635Z,10.20
2019-02-19T11:12:43.159Z,9.77
2019-02-19T11:15:17.332Z,11.60
2019-02-19T11:17:45.752Z,10.90
2019-02-19T11:20:19.031Z,11.63
2019-02-19T11:22:47.875Z,10.67
2019-02-19T11:25:16.476Z,10.23
2019-02-19T11:27:45.100Z,9.80
2019-02-19T11:30:20.275Z,9.00
2019-02-19T11:32:48.919Z,9.53
2019-02-19T11:35:17.434Z,9.07
2019-02-19T11:37:45.917Z,9.23
2019-02-19T11:40:14.812Z,9.33
2019-02-19T11:42:43.373Z,10.80
2019-02-19T11:45:14.327Z,9.07
2019-02-19T11:47:42.808Z,9.60
2019-02-19T11:50:13.179Z,10.03
2019-02-19T11:52:41.823Z,9.97
2019-02-19T11:55:15.351Z,10.63
2019-02-19T11:57:43.831Z,11.40
2019-02-19T12:00:16.815Z,9.93
2019-02-19T12:02:45.422Z,11.20
2019-02-19T12:05:14.045Z,10.43
2019-02-19T12:07:42.566Z,10.67
2019-02-19T12:10:11.995Z,10.77
2019-02-19T12:12:41.136Z,10.10
2019-02-19T12:15:12.003Z,11.50
2019-02-19T12:17:40.537Z,11.13
2019-02-19T12:20:11.480Z,10.33
2019-02-19T12:22:40.388Z,11.00
2019-02-19T12:25:09.688Z,11.43
2019-02-19T12:27:38.234Z,12.77
2019-02-19T12:30:15.244Z,11.70
2019-02-19T12:32:43.868Z,11.73
2019-02-19T12:35:12.469Z,11.23
2019-02-19T12:37:41.312Z,11.77
2019-02-19T12:40:11.979Z,12.07
2019-02-19T12:42:40.464Z,10.80
2019-02-19T12:45:11.056Z,11.73
2019-02-19T12:47:39.544Z,11.47
2019-02-19T12:50:10.783Z,11.67
2019-02-19T12:52:39.808Z,11.77
2019-02-19T12:55:09.604Z,11.27
2019-02-19T12:57:38.163Z,11.13
2019-02-19T13:00:12.222Z,11.00
2019-02-19T13:02:40.776Z,10.73
2019-02-19T13:05:10.843Z,10.77
2019-02-19T13:07:39.795Z,10.20
2019-02-19T13:10:12.244Z,10.80
2019-02-19T13:12:41.144Z,10.77
2019-02-19T13:15:14.636Z,10.60
2019-02-19T13:17:43.227Z,9.10
2019-02-19T13:20:13.756Z,10.47
2019-02-19T13:22:42.361Z,10.53
2019-02-19T13:25:11.870Z,9.90
2019-02-19T13:27:40.740Z,10.97
2019-02-19T13:30:22.494Z,11.10
2019-02-19T13:32:50.951Z,11.20
2019-02-19T13:35:19.583Z,10.50
2019-02-19T13:37:48.048Z,11.10
2019-02-19T13:40:18.110Z,10.90
2019-02-19T13:42:46.654Z,9.63
2019-02-19T13:45:15.855Z,8.23
2019-02-19T13:47:44.608Z,9.07
2019-02-19T13:50:16.136Z,7.10
2019-02-19T13:52:46.254Z,7.30
2019-02-19T13:55:16.423Z,8.17
2019-02-19T13:57:44.871Z,7.43
2019-02-19T14:00:15.168Z,6.97
2019-02-19T14:02:43.681Z,5.90
2019-02-19T14:05:12.227Z,4.50
2019-02-19T14:07:40.691Z,4.50
2019-02-19T14:10:10.881Z,4.50
2019-02-19T14:12:39.335Z,4.63
2019-02-19T14:15:17.870Z,4.27
2019-02-19T14:17:46.379Z,4.10
2019-02-19T14:20:16.832Z,5.03
2019-02-19T14:22:58.816Z,4.80
2019-02-19T14:25:28.913Z,4.47
2019-02-19T14:28:17.241Z,4.07
2019-02-19T14:30:53.429Z,4.50
2019-02-19T14:33:23.655Z,4.27
2019-02-19T14:35:59.754Z,4.27
2019-02-19T14:38:44.895Z,4.50
2019-02-19T14:41:20.901Z,4.20
2019-02-19T14:43:51.063Z,4.30
2019-02-19T14:46:24.132Z,5.00
2019-02-19T14:49:06.152Z,4.37
2019-02-19T14:51:45.221Z,4.80
2019-02-19T14:54:31.912Z,4.40
2019-02-19T14:57:10.983Z,4.40
2019-02-19T14:59:50.059Z,4.03
2019-02-19T15:02:20.247Z,3.93
2019-02-19T15:04:50.636Z,4.03
2019-02-19T15:07:32.995Z,3.80
2019-02-19T15:10:19.578Z,4.00
2019-02-19T15:12:49.792Z,3.50
2019-02-19T15:15:26.333Z,4.00
2019-02-19T15:18:13.311Z,4.00
2019-02-19T15:20:46.159Z,4.00
2019-02-19T15:23:28.427Z,4.00
2019-02-19T15:25:58.519Z,3.57
2019-02-19T15:28:40.861Z,4.00
2019-02-19T15:31:23.419Z,3.63
2019-02-19T15:34:05.713Z,3.63
2019-02-19T15:36:38.599Z,4.17
2019-02-19T15:39:24.027Z,4.10
2019-02-19T15:42:06.298Z,4.37
2019-02-19T15:44:39.170Z,4.03
2019-02-19T15:47:12.019Z,4.97
2019-02-19T15:49:47.784Z,4.50
2019-02-19T15:52:20.647Z,3.87
2019-02-19T15:54:53.697Z,4.07
2019-02-19T15:57:26.511Z,3.87
2019-02-19T16:00:13.003Z,3.80
2019-02-19T16:02:49.083Z,4.40
2019-02-19T16:05:34.248Z,4.13
2019-02-19T16:08:04.344Z,4.10
2019-02-19T16:10:37.023Z,4.00
2019-02-19T16:13:09.691Z,4.20
2019-02-19T16:15:52.050Z,4.13
2019-02-19T16:18:40.665Z,4.33
2019-02-19T16:21:16.508Z,4.70
2019-02-19T16:23:52.645Z,4.10
2019-02-19T16:26:28.805Z,4.30
2019-02-19T16:28:59.301Z,4.20
2019-02-19T16:31:32.692Z,4.57
2019-02-19T16:34:19.107Z,4.93
2019-02-19T16:37:04.264Z,5.00
2019-02-19T16:39:36.895Z,5.37
2019-02-19T16:42:07.059Z,4.97
2019-02-19T16:44:37.248Z,4.40
2019-02-19T16:47:19.592Z,4.20
2019-02-19T16:50:07.872Z,3.80
2019-02-19T16:52:42.692Z,3.63
2019-02-19T16:55:12.808Z,3.90
2019-02-19T16:57:42.891Z,4.10
2019-02-19T17:00:20.035Z,4.40
2019-02-19T17:02:50.416Z,3.50
2019-02-19T17:05:20.512Z,3.90
2019-02-19T17:07:56.495Z,4.47
2019-02-19T17:10:35.812Z,4.57
2019-02-19T17:13:08.651Z,4.07
2019-02-19T17:15:38.763Z,6.63
2019-02-19T17:18:24.872Z,5.90
2019-02-19T17:20:55.064Z,8.23
2019-02-19T17:23:25.232Z,8.97
2019-02-19T17:25:55.356Z,9.47
2019-02-19T17:28:25.974Z,8.20
2019-02-19T17:31:01.937Z,9.57
2019-02-19T17:33:35.072Z,8.47
2019-02-19T17:36:21.518Z,9.70
2019-02-19T17:38:51.610Z,8.70
2019-02-19T17:41:34.080Z,7.60
2019-02-19T17:44:07.173Z,7.80
2019-02-19T17:46:40.283Z,7.30
2019-02-19T17:49:19.628Z,7.10
2019-02-19T17:51:52.715Z,6.53
2019-02-19T17:54:31.977Z,6.90
2019-02-19T17:57:05.040Z,6.97
2019-02-19T17:59:37.967Z,7.93
2019-02-19T18:02:08.493Z,7.13
2019-02-19T18:04:38.607Z,6.93
2019-02-19T18:07:24.043Z,7.83
2019-02-19T18:10:05.752Z,7.70
2019-02-19T18:12:41.698Z,7.77
2019-02-19T18:15:23.987Z,7.20
2019-02-19T18:17:59.720Z,7.30
2019-02-19T18:20:28.200Z,7.63
2019-02-19T18:22:56.727Z,6.90
2019-02-19T18:25:25.498Z,7.00
2019-02-19T18:27:54.015Z,7.40
2019-02-19T18:30:22.471Z,7.40
2019-02-19T18:32:51.252Z,7.30
2019-02-19T18:35:19.700Z,7.50
2019-02-19T18:37:48.557Z,9.20
2019-02-19T18:40:17.163Z,8.63
2019-02-19T18:42:45.708Z,8.93
2019-02-19T18:45:14.383Z,9.37
2019-02-19T18:47:42.936Z,8.40
2019-02-19T18:50:11.523Z,9.50
2019-02-19T18:52:39.981Z,8.27
2019-02-19T18:55:08.770Z,8.20
2019-02-19T18:57:37.291Z,8.63
2019-02-19T19:00:08.789Z,10.80
2019-02-19T19:02:37.239Z,9.03
2019-02-19T19:05:07.364Z,11.23
2019-02-19T19:07:35.819Z,13.50
2019-02-19T19:10:06.507Z,8.70
2019-02-19T19:12:35.035Z,8.17
2019-02-19T19:15:03.955Z,8.90
2019-02-19T19:17:32.513Z,8.67
2019-02-19T19:20:01.047Z,13.60
2019-02-19T19:22:29.528Z,13.70
2019-02-19T19:24:57.990Z,12.60
2019-02-19T19:27:26.535Z,10.57
2019-02-19T19:29:55.231Z,9.20
2019-02-19T19:32:24.020Z,10.00
2019-02-19T19:34:52.476Z,9.77
2019-02-19T19:37:21.035Z,11.07
2019-02-19T19:39:49.874Z,15.17
2019-02-19T19:42:18.436Z,12.30
2019-02-19T19:44:46.968Z,11.73
2019-02-19T19:47:15.528Z,12.33
2019-02-19T19:49:44.431Z,12.57
2019-02-19T19:52:12.900Z,11.83
2019-02-19T19:54:41.455Z,12.17
2019-02-19T19:57:09.913Z,12.90
2019-02-19T19:59:38.468Z,12.33
2019-02-19T20:02:06.999Z,11.43
2019-02-19T20:04:35.483Z,10.83
2019-02-19T20:07:04.392Z,11.23
2019-02-19T20:09:32.880Z,12.47
2019-02-19T20:12:01.430Z,11.60
2019-02-19T20:14:29.967Z,11.20
2019-02-19T20:16:58.427Z,11.20
2019-02-19T20:19:26.920Z,11.03
2019-02-19T20:21:55.439Z,10.47
2019-02-19T20:24:23.899Z,11.13
2019-02-19T20:26:52.451Z,11.23
2019-02-19T20:29:21.236Z,11.27
2019-02-19T20:31:50.024Z,11.70
2019-02-19T20:34:18.483Z,11.30
2019-02-19T20:36:46.964Z,11.13
2019-02-19T20:39:15.496Z,11.53
2019-02-19T20:41:44.053Z,11.60
2019-02-19T20:44:12.575Z,13.40
2019-02-19T20:46:41.136Z,13.40
2019-02-19T20:49:09.731Z,13.77
2019-02-19T20:51:38.292Z,12.80
2019-02-19T20:54:06.752Z,12.80
2019-02-19T20:56:35.563Z,12.90
2019-02-19T20:59:04.217Z,13.23
2019-02-19T21:01:32.752Z,13.80
2019-02-19T21:04:01.236Z,13.67
2019-02-19T21:06:29.772Z,14.27
2019-02-19T21:08:58.259Z,14.20
2019-02-19T21:11:27.673Z,14.70
2019-02-19T21:13:56.313Z,13.93
2019-02-19T21:16:25.144Z,12.80
2019-02-19T21:18:53.732Z,13.60
2019-02-19T21:21:22.264Z,12.90
2019-02-19T21:23:50.741Z,13.63
2019-02-19T21:26:19.297Z,13.20
2019-02-19T21:28:47.823Z,12.30
2019-02-19T21:31:16.274Z,12.60
2019-02-19T21:33:44.735Z,14.47
2019-02-19T21:36:13.291Z,13.60
2019-02-19T21:38:41.823Z,13.00
2019-02-19T21:41:10.308Z,13.33
2019-02-19T21:43:38.835Z,13.03
2019-02-19T21:46:07.350Z,12.37
2019-02-19T21:48:35.923Z,13.37
2019-02-19T21:51:04.916Z,13.70
2019-02-19T21:53:33.514Z,12.90
2019-02-19T21:56:02.003Z,15.10
2019-02-19T21:58:30.631Z,13.83
2019-02-19T22:00:59.084Z,13.30
2019-02-19T22:03:27.584Z,13.77
2019-02-19T22:05:56.125Z,13.00
2019-02-19T22:08:24.667Z,13.90
2019-02-19T22:10:53.940Z,13.67
2019-02-19T22:13:22.578Z,14.00
2019-02-19T22:15:51.359Z,15.10
2019-02-19T22:18:19.819Z,13.73
2019-02-19T22:21:02.309Z,15.83
2019-02-19T22:23:30.848Z,14.07
2019-02-19T22:25:59.375Z,14.90
2019-02-19T22:28:27.934Z,14.50
2019-02-19T22:30:56.400Z,14.20
2019-02-19T22:33:24.875Z,14.10
2019-02-19T22:35:53.648Z,13.37
2019-02-19T22:38:22.445Z,14.17
2019-02-19T22:40:55.210Z,13.93
2019-02-19T22:43:21.183Z,13.77
2019-02-19T22:45:49.716Z,13.80
2019-02-19T22:48:18.195Z,14.10
2019-02-19T22:50:47.000Z,13.97
2019-02-19T22:53:29.116Z,14.80
2019-02-19T22:55:57.927Z,15.27
2019-02-19T22:58:26.455Z,16.73
2019-02-19T23:00:57.392Z,14.70
2019-02-19T23:03:27.179Z,15.30
2019-02-19T23:05:56.046Z,15.50
2019-02-19T23:08:24.807Z,14.53
2019-02-19T23:10:53.294Z,14.80
2019-02-19T23:13:21.820Z,14.47
2019-02-19T23:15:50.375Z,14.23
2019-02-19T23:18:18.834Z,14.00
2019-02-19T23:20:47.368Z,14.47
2019-02-19T23:23:15.848Z,14.10
2019-02-19T23:25:44.377Z,14.80
2019-02-19T23:28:12.936Z,13.73
2019-02-19T23:30:41.396Z,13.57
2019-02-19T23:33:10.223Z,14.23
2019-02-19T23:35:43.629Z,14.33
2019-02-19T23:38:12.180Z,15.00
2019-02-19T23:40:40.711Z,13.10
2019-02-19T23:43:09.193Z,15.80
2019-02-19T23:45:37.727Z,14.80
2019-02-19T23:48:06.568Z,14.17
2019-02-19T23:50:35.132Z,18.53
2019-02-19T23:53:03.666Z,14.80
2019-02-19T23:55:32.218Z,14.10
2019-02-19T23:58:00.677Z,13.70
